Eastwood, Kentucky
Current Conditions -  °F | °C
As of 7:53 PM on Tuesday 21 Oct 2014 (Local Time) from KLOU Reporting Station
Overcast Overcast  
Wind Chill: 56°   Ceiling: 5500
Heat Index: 56°   Visibility: 10mi
Dew Point: 41°   Wind: 0mph
Humidity: 57%   Direction: NA
Pressure: 30.13"   Gusts: NA
Location:  38.23°N, 85.46°W
Report Text: KLOU 212353Z 00000KT 10SM OVC055 13/05 A3013 RMK AO2 SLP203 T01330050 10167 20133 51012
Loading
Personal Weather Stations






























Interactive Weather Map
Tropical Storm Tracking
New forecast layout! Learn more

10-Day Weather Forecast

Advertisements
Track Severe Weather on mobile